Time,TemperatureF,DewpointF,PressureIn,WindDirection,WindDirectionDegrees,WindSpeedMPH,WindSpeedGustMPH,Humidity,HourlyPrecipIn,Conditions,Clouds,dailyrainin,SoftwareType,DateUTC
2013-07-06 00:02:00,72.0,71.0,30.09,SSW,203,1.0,2.0,96,0.00,,,0.14,,2013-07-06 04:02:00,
2013-07-06 00:12:00,72.0,71.0,30.09,South,169,0.0,2.0,96,0.00,,,0.14,,2013-07-06 04:12:00,
2013-07-06 00:22:00,72.0,71.0,30.09,South,169,0.0,2.0,96,0.00,,,0.14,,2013-07-06 04:22:00,
2013-07-06 00:33:00,72.0,71.0,30.09,South,169,0.0,2.0,96,0.00,,,0.14,,2013-07-06 04:33:00,
2013-07-06 00:43:00,72.0,71.0,30.09,South,169,0.0,2.0,96,0.00,,,0.14,,2013-07-06 04:43:00,
2013-07-06 08:01:00,72.0,69.0,30.13,West,268,0.0,3.0,91,0.00,,,0.14,,2013-07-06 12:01:00,
2013-07-06 08:12:00,72.0,69.0,30.13,SW,214,1.0,3.0,91,0.00,,,0.14,,2013-07-06 12:12:00,
2013-07-06 08:22:00,72.0,69.0,30.13,WSW,240,2.0,5.0,89,0.00,,,0.14,,2013-07-06 12:22:00,
2013-07-06 08:33:00,72.0,69.0,30.13,SSW,203,1.0,3.0,89,0.00,,,0.14,,2013-07-06 12:33:00,
2013-07-06 08:43:00,73.0,69.0,30.13,WSW,243,1.0,3.0,88,0.00,,,0.14,,2013-07-06 12:43:00,
2013-07-06 08:52:00,73.0,69.0,30.13,West,273,2.0,4.0,87,0.00,,,0.14,,2013-07-06 12:52:00,
2013-07-06 09:01:00,73.0,69.0,30.13,WNW,290,2.0,4.0,87,0.00,,,0.14,,2013-07-06 13:01:00,
2013-07-06 09:12:00,74.0,69.0,30.13,WNW,282,2.0,4.0,85,0.00,,,0.14,,2013-07-06 13:12:00,
2013-07-06 09:22:00,74.0,69.0,30.13,WNW,282,2.0,3.0,85,0.00,,,0.14,,2013-07-06 13:22:00,
2013-07-06 09:43:00,76.0,69.0,30.14,WNW,288,3.0,5.0,80,0.00,,,0.14,,2013-07-06 13:43:00,
2013-07-06 09:52:00,76.0,70.0,30.14,NW,310,2.0,5.0,81,0.00,,,0.14,,2013-07-06 13:52:00,
2013-07-06 10:22:00,78.0,70.0,30.14,NNW,335,2.0,5.0,76,0.00,,,0.14,,2013-07-06 14:22:00,
2013-07-06 10:34:00,78.0,69.0,30.14,NW,321,1.0,4.0,74,0.00,,,0.14,,2013-07-06 14:34:00,
2013-07-06 10:42:00,78.0,69.0,30.13,NW,318,3.0,8.0,73,0.00,,,0.14,,2013-07-06 14:42:00,
2013-07-06 10:53:00,79.0,69.0,30.13,NW,307,3.0,5.0,72,0.00,,,0.14,,2013-07-06 14:53:00,
2013-07-06 11:02:00,79.0,69.0,30.13,WSW,255,3.0,6.0,71,0.00,,,0.14,,2013-07-06 15:02:00,
2013-07-06 11:12:00,80.0,70.0,30.13,SW,230,3.0,7.0,71,0.00,,,0.14,,2013-07-06 15:12:00,
2013-07-06 11:22:00,80.0,69.0,30.13,WNW,283,2.0,5.0,69,0.00,,,0.14,,2013-07-06 15:22:00,
2013-07-06 11:33:00,80.0,69.0,30.13,WNW,283,2.0,5.0,69,0.00,,,0.14,,2013-07-06 15:33:00,
2013-07-06 11:43:00,80.0,69.0,30.14,West,272,2.0,6.0,69,0.00,,,0.14,,2013-07-06 15:43:00,
2013-07-06 11:53:00,80.0,68.0,30.14,WSW,250,1.0,7.0,68,0.00,,,0.14,,2013-07-06 15:53:00,
2013-07-06 12:28:00,81.0,69.0,30.14,NNE,27,2.0,5.0,67,0.00,,,0.14,,2013-07-06 16:28:00,
2013-07-06 12:47:00,82.0,69.0,30.13,WSW,252,1.0,3.0,65,0.00,,,0.14,,2013-07-06 16:47:00,
2013-07-06 12:56:00,81.0,67.0,30.13,West,260,2.0,4.0,63,0.00,,,0.14,,2013-07-06 16:56:00,
2013-07-06 13:03:00,82.0,69.0,30.13,WNW,283,1.0,5.0,65,0.00,,,0.14,,2013-07-06 17:03:00,
2013-07-06 13:26:00,82.0,67.0,30.13,SSW,198,0.0,4.0,61,0.00,,,0.14,,2013-07-06 17:26:00,
2013-07-06 13:44:00,83.0,68.0,30.12,West,268,0.0,3.0,61,0.00,,,0.14,,2013-07-06 17:44:00,
2013-07-06 13:55:00,83.0,68.0,30.12,West,268,0.0,3.0,61,0.00,,,0.14,,2013-07-06 17:55:00,
2013-07-06 14:14:00,85.0,70.0,30.11,West,274,2.0,4.0,60,0.00,,,0.14,,2013-07-06 18:14:00,
2013-07-06 14:47:00,84.0,69.0,30.10,West,264,1.0,3.0,60,0.00,,,0.14,,2013-07-06 18:47:00,
2013-07-06 14:57:00,83.0,66.0,30.10,SSW,213,1.0,3.0,57,0.00,,,0.14,,2013-07-06 18:57:00,
2013-07-06 15:15:00,85.0,69.0,30.10,South,186,3.0,5.0,58,0.00,,,0.14,,2013-07-06 19:15:00,
2013-07-06 15:32:00,85.0,65.0,30.09,SSE,149,2.0,4.0,52,0.00,,,0.06,,2013-07-06 19:32:00,
2013-07-06 15:46:00,85.0,66.0,30.09,NNE,23,2.0,4.0,54,0.00,,,0.06,,2013-07-06 19:46:00,
2013-07-06 15:54:00,84.0,67.0,30.09,West,264,3.0,6.0,56,0.00,,,0.06,,2013-07-06 19:54:00,
2013-07-06 16:17:00,85.0,66.0,30.08,NNW,337,2.0,4.0,53,0.00,,,0.06,,2013-07-06 20:17:00,
2013-07-06 16:26:00,85.0,66.0,30.08,SSW,207,2.0,6.0,54,0.00,,,0.06,,2013-07-06 20:26:00,
2013-07-06 16:48:00,85.0,68.0,30.07,NW,304,1.0,4.0,56,0.00,,,0.06,,2013-07-06 20:48:00,
2013-07-06 16:56:00,85.0,68.0,30.07,WSW,245,2.0,4.0,56,0.00,,,0.06,,2013-07-06 20:56:00,
2013-07-06 17:14:00,86.0,69.0,30.06,SSE,156,1.0,3.0,57,0.00,,,0.06,,2013-07-06 21:14:00,
2013-07-06 17:35:00,87.0,70.0,30.05,NNW,331,0.0,4.0,57,0.00,,,0.06,,2013-07-06 21:35:00,
2013-07-06 18:01:00,87.0,68.0,30.04,ESE,114,2.0,3.0,54,0.00,,,0.06,,2013-07-06 22:01:00,
2013-07-06 18:18:00,88.0,71.0,30.03,ENE,71,1.0,2.0,58,0.00,,,0.06,,2013-07-06 22:18:00,
2013-07-06 18:35:00,87.0,70.0,30.03,SSE,156,1.0,4.0,57,0.00,,,0.06,,2013-07-06 22:35:00,
2013-07-06 18:46:00,88.0,69.0,30.03,West,276,1.0,3.0,54,0.00,,,0.06,,2013-07-06 22:46:00,
2013-07-06 18:56:00,86.0,72.0,30.03,SE,131,2.0,6.0,63,0.00,,,0.06,,2013-07-06 22:56:00,
2013-07-06 19:02:00,86.0,70.0,30.03,ESE,118,1.0,3.0,60,0.00,,,0.06,,2013-07-06 23:02:00,
2013-07-06 19:13:00,85.0,72.0,30.02,SSE,151,2.0,3.0,65,0.00,,,0.06,,2013-07-06 23:13:00,
2013-07-06 19:25:00,85.0,70.0,30.02,SE,146,2.0,3.0,61,0.00,,,0.06,,2013-07-06 23:25:00,
2013-07-06 19:33:00,85.0,72.0,30.02,ESE,123,1.0,3.0,65,0.00,,,0.06,,2013-07-06 23:33:00,
2013-07-06 19:48:00,85.0,72.0,30.02,SE,124,1.0,3.0,65,0.00,,,0.06,,2013-07-06 23:48:00,
2013-07-06 19:55:00,85.0,73.0,30.02,SE,128,0.0,2.0,68,0.00,,,0.06,,2013-07-06 23:55:00,
2013-07-06 20:03:00,85.0,73.0,30.01,SE,129,0.0,1.0,67,0.00,,,0.06,,2013-07-07 00:03:00,
2013-07-06 20:13:00,82.0,74.0,30.02,SE,126,0.0,0.0,77,0.00,,,0.06,,2013-07-07 00:13:00,
2013-07-06 20:19:00,84.0,71.0,30.01,SE,128,0.0,1.0,65,0.00,,,0.06,,2013-07-07 00:19:00,
2013-07-06 20:26:00,83.0,74.0,30.01,SE,127,1.0,1.0,75,0.00,,,0.06,,2013-07-07 00:26:00,
2013-07-06 20:33:00,82.0,74.0,30.02,SE,126,0.0,2.0,78,0.00,,,0.06,,2013-07-07 00:33:00,
2013-07-06 20:47:00,82.0,74.0,30.02,SE,126,0.0,0.0,77,0.00,,,0.06,,2013-07-07 00:47:00,
2013-07-06 20:56:00,82.0,74.0,30.02,SE,126,0.0,0.0,77,0.00,,,0.06,,2013-07-07 00:56:00,
2013-07-06 21:02:00,82.0,74.0,30.02,SE,126,0.0,0.0,77,0.00,,,0.06,,2013-07-07 01:02:00,
2013-07-06 21:26:00,75.0,72.0,30.03,SE,129,0.0,1.0,89,0.00,,,0.06,,2013-07-07 01:26:00,
2013-07-06 21:35:00,81.0,74.0,30.02,SE,126,0.0,0.0,79,0.00,,,0.06,,2013-07-07 01:35:00,
2013-07-06 21:46:00,81.0,74.0,30.02,SE,126,0.0,0.0,79,0.00,,,0.06,,2013-07-07 01:46:00,
2013-07-06 21:55:00,75.0,72.0,30.03,SE,129,0.0,1.0,89,0.00,,,0.06,,2013-07-07 01:55:00,
2013-07-06 22:02:00,75.0,72.0,30.03,SE,129,0.0,1.0,89,0.00,,,0.06,,2013-07-07 02:02:00,
2013-07-06 22:23:00,75.0,72.0,30.03,SE,129,0.0,1.0,89,0.00,,,0.06,,2013-07-07 02:23:00,
2013-07-06 23:01:00,75.0,71.0,30.03,SE,129,0.0,1.0,88,0.00,,,0.06,,2013-07-07 03:01:00,
2013-07-06 23:33:00,75.0,71.0,30.03,SE,129,0.0,1.0,88,0.00,,,0.06,,2013-07-07 03:33:00,
2013-07-06 23:44:00,75.0,71.0,30.03,SE,129,0.0,1.0,88,0.00,,,0.06,,2013-07-07 03:44:00,
2013-07-06 23:57:00,75.0,71.0,30.03,SE,129,0.0,1.0,88,0.00,,,0.06,,2013-07-07 03:57:00,